Web Počasí Slunečno.cz™ (Podmínky, ePrivacy) používá cookies a personalizace pro reklamní účely. Pohybem po stránce vyjadřujete souhlas. Odejít

Aktuální počasí v Česku a ve světě - METAR

Seznam meteostanic umístěných nejčasteji na letišti v ČR a ve světě

Vyhledat místa podle abecedy:
A B C D E F G H I J K L M N O P Q R S T U V W X Y Z

Filtrovat:

ID stanice:
a/nebo
Název místa (fulltext):
 
Místo (ID)Naposledy načteno 
Šerák (Serak) 05.12.2021 08:00 UTC Zobrazit data
Místo: Šerák
Teplota: -4 °C (pocitová: -15.4 °C)
Vítr: 6 m/s z(e) 270°
Počasí: skoro zataženo
Dohlednost: 500 m
Zákl. oblačnosti: N/A
Vlhkost: 100%
Svratouch (Svratouch) 06.12.2021 21:00 UTC Zobrazit data
Místo: Svratouch
Teplota: -4 °C (pocitová: -11 °C)
Vítr: 2 m/s z(e) 360°
Počasí: sněží
Dohlednost: 8 km
Zákl. oblačnosti: 7/8 60 m;8/8 600 m
Vlhkost: 100%
Saipan Island (PGSN) 06.12.2021 20:54 UTC Zobrazit METAR
PGSN 062054Z 11010KT 10SM FEW018 26/24 A2978 RMK AO2 SLP107 60004 T02610239 53014 $
Salzburg (LOWS) 06.12.2021 20:50 UTC Zobrazit METAR
LOWS 062050Z 14006KT 9999 FEW006 SCT040 BKN060 00/M00 Q1013 NOSIG
Samara (UWWW) Zatím nenačteno  
San Andres Island (SKSP) 06.12.2021 21:00 UTC Zobrazit METAR
SKSP 062100Z 08011KT 050V110 9999 FEW020 30/24 Q1011 RMK A2987
San Jose (MRPV) 06.12.2021 21:00 UTC Zobrazit METAR
MRPV 062100Z 08014KT 9999 SCT035 BKN200 24/15 A2999 NOSIG
San Juan (TJSJ) 06.12.2021 20:56 UTC Zobrazit METAR
TJSJ 062056Z 08011KT 10SM FEW029 SCT034 SCT060 28/22 A3004 RMK AO2 RAB19E29 SLP170 VCSH SE NW P0000 60000 T02780222 55005
San Salvador (MSLP) 06.12.2021 20:50 UTC Zobrazit METAR
MSLP 062050Z 18004KT 140V250 9999 FEW055 32/22 Q1009 A2981 NOSIG
Sanaa (OYSN) 08.02.2017 13:00 UTC Zobrazit METAR
OYSN 081300Z 03008KT 9999 FEW030 25/M05 Q1022
Santiago (SCEL) 06.12.2021 00:00 UTC Zobrazit METAR
SCEL 060000Z 15012KT CAVOK 25/09 Q1011 NOSIG
Santiago (LEST) 06.12.2021 20:00 UTC Zobrazit METAR
LEST 062000Z VRB02KT 1500 -DZ BCFG VV001 11/11 Q1024 TEMPO 0800 DZ FG VV001
Santo Domingo (MDHE) 08.04.2012 12:00 UTC  
Santorini (LGSR) 06.12.2021 19:50 UTC Zobrazit METAR
LGSR 061950Z 16025KT 9999 SCT025 15/12 Q1009
Sao Tome (FPST) 25.11.2021 09:00 UTC Zobrazit METAR
FPST 250900Z 18006KT 9999 FEW025 29/25 Q1012 NOSIG
Sarajevo (LQSA) 06.12.2021 21:00 UTC Zobrazit METAR
LQSA 062100Z 30005KT 7000 -SN SCT010 OVC020 01/01 Q1009 NOSIG
Saratov (UWSS) 06.03.2017 17:00 UTC Zobrazit METAR
UWSS 061700Z CAVOK 04/00 Q1024 R12/190055 NOSIG RMK QFE756
Sarmellek (LHSM) 06.12.2021 20:45 UTC Zobrazit METAR
LHSM 062045Z AUTO 34009KT 7000 FEW025 01/M01 Q1012
Seinajoki (EFSI) 06.12.2021 20:50 UTC Zobrazit METAR
EFSI 062050Z AUTO 08003KT 9999 -SHSN SCT035 M12/M14 Q1020
Seoul/Incheon (RKSI) 06.12.2021 21:00 UTC Zobrazit METAR
RKSI 062100Z 06003KT 8000 NSC 04/M01 Q1029 NOSIG
Seville (LEZL) 06.12.2021 21:00 UTC Zobrazit METAR
LEZL 062100Z 03003KT CAVOK 08/05 Q1027 NOSIG
Seychelles (FSIA) 06.12.2021 21:00 UTC Zobrazit METAR
FSIA 062100Z VRB02KT 9999 FEW025 27/22 Q1012 NOSIG
Shymkent (UAII) Zatím nenačteno  
Siauliai (EYSA) 06.12.2021 20:50 UTC Zobrazit METAR
EYSA 062050Z 34007KT 9999 -SN OVC004 M11/M12 Q1016 NOSIG
Sibiu (LRSB) 06.12.2021 21:00 UTC Zobrazit METAR
LRSB 062100Z 06003KT 5000 BR OVC021 04/04 Q1006
Simferopol' (UKFF) Zatím nenačteno  
Singapore (WSSS) 06.12.2021 21:00 UTC Zobrazit METAR
WSSS 062100Z 35008KT 9999 SCT018 BKN300 26/23 Q1009 NOSIG
Skopje (LWSK) 06.12.2021 21:00 UTC Zobrazit METAR
LWSK 062100Z 00000KT 9999 -RA SCT016 OVC033 07/06 Q1004 NOSIG
Soderhamn (ESNY) Zatím nenačteno  
Sofia (LBSF) 06.12.2021 21:00 UTC Zobrazit METAR
LBSF 062100Z 30007KT 6000 RA FEW004 SCT014 OVC026 06/05 Q1004 TEMPO 2000 RA BKN003
Sonderborg (EKSB) 06.12.2021 20:50 UTC Zobrazit METAR
EKSB 062050Z AUTO 14018KT 9999 FEW020/// OVC052/// 03/M01 Q1009
Split (LDSP) 06.12.2021 21:00 UTC Zobrazit METAR
LDSP 062100Z AUTO 03016KT CAVOK 08/M03 Q1005 NOSIG
St. Denis (FMEE) 06.12.2021 20:00 UTC Zobrazit METAR
FMEE 062000Z AUTO 13012KT 9999 BKN084 26/18 Q1019 NOSIG
St. Georges (TGPY) 06.12.2021 21:00 UTC Zobrazit METAR
TGPY 062100Z 09015KT 9999 FEW018 29/23 Q1012 NOSIG JP-NNE+NE
St. Johns (TAPA) 06.12.2021 21:00 UTC Zobrazit METAR
TAPA 062100Z 07011KT 040V130 9999 SCT018 27/21 Q1016 NOSIG
St. Petersburg (ULLI) Zatím nenačteno  
St. Pierre Island (LFVP) 06.12.2021 21:00 UTC Zobrazit METAR
LFVP 062100Z 20014KT 9999 SCT030 BKN110 03/M02 Q1031 NOSIG
Stavanger (ENZV) 06.12.2021 20:50 UTC Zobrazit METAR
ENZV 062050Z 13022G34KT CAVOK 01/M04 Q1003
Stockholm (ESSA) 06.12.2021 20:50 UTC Zobrazit METAR
ESSA 062050Z VRB02KT CAVOK M19/M21 Q1018 NOSIG
Strasbourg (LFST) 06.12.2021 21:00 UTC Zobrazit METAR
LFST 062100Z AUTO 18009KT 9999 OVC042 03/M00 Q1012 TEMPO 4000 -RA BKN011
Stuttgart (EDDS) 06.12.2021 20:50 UTC Zobrazit METAR
EDDS 062050Z VRB02KT 9999 FEW030 M00/M02 Q1012 NOSIG
Reklama

Reklama


Newslettter

Počasí na Váš email

Každý den Vám pošleme předpověď
Emaily chodí ráno a bez reklamy



Odhlásit newsletter

Reklama